sensor_id;sensor_type;location;lat;lon;timestamp;temperature;humidity
1578;DHT22;57623;53.608;10.004;2023-02-15T00:01:39;5.10;99.90
1578;DHT22;57623;53.608;10.004;2023-02-15T00:04:16;5.10;99.90
1578;DHT22;57623;53.608;10.004;2023-02-15T00:06:47;5.10;99.90
1578;DHT22;57623;53.608;10.004;2023-02-15T00:09:18;5.10;99.90
1578;DHT22;57623;53.608;10.004;2023-02-15T00:11:45;5.10;99.90
1578;DHT22;57623;53.608;10.004;2023-02-15T00:14:21;5.10;99.90
1578;DHT22;57623;53.608;10.004;2023-02-15T00:16:56;5.10;99.90
1578;DHT22;57623;53.608;10.004;2023-02-15T00:19:31;5.10;99.90
1578;DHT22;57623;53.608;10.004;2023-02-15T00:21:59;5.10;99.90
1578;DHT22;57623;53.608;10.004;2023-02-15T00:24:30;5.10;99.90
1578;DHT22;57623;53.608;10.004;2023-02-15T00:27:01;5.10;99.90
1578;DHT22;57623;53.608;10.004;2023-02-15T00:29:32;5.10;99.90
1578;DHT22;57623;53.608;10.004;2023-02-15T00:32:09;5.10;99.90
1578;DHT22;57623;53.608;10.004;2023-02-15T00:34:41;5.20;99.90
1578;DHT22;57623;53.608;10.004;2023-02-15T00:37:11;5.20;99.90
1578;DHT22;57623;53.608;10.004;2023-02-15T00:39:44;5.20;99.90
1578;DHT22;57623;53.608;10.004;2023-02-15T00:42:14;5.20;99.90
1578;DHT22;57623;53.608;10.004;2023-02-15T00:44:45;5.20;99.90
1578;DHT22;57623;53.608;10.004;2023-02-15T00:47:13;5.20;99.90
1578;DHT22;57623;53.608;10.004;2023-02-15T00:49:43;5.20;99.90
1578;DHT22;57623;53.608;10.004;2023-02-15T00:52:12;5.30;99.90
1578;DHT22;57623;53.608;10.004;2023-02-15T00:54:43;5.30;99.90
1578;DHT22;57623;53.608;10.004;2023-02-15T00:57:11;5.20;99.90
1578;DHT22;57623;53.608;10.004;2023-02-15T00:59:45;5.20;99.90
1578;DHT22;57623;53.608;10.004;2023-02-15T01:02:13;5.20;99.90
1578;DHT22;57623;53.608;10.004;2023-02-15T01:04:47;5.30;99.90
1578;DHT22;57623;53.608;10.004;2023-02-15T01:07:18;5.30;99.90
1578;DHT22;57623;53.608;10.004;2023-02-15T01:09:47;5.30;99.90
1578;DHT22;57623;53.608;10.004;2023-02-15T01:12:20;5.20;99.90
1578;DHT22;57623;53.608;10.004;2023-02-15T01:15:00;5.20;99.90
1578;DHT22;57623;53.608;10.004;2023-02-15T01:17:31;5.20;99.90
1578;DHT22;57623;53.608;10.004;2023-02-15T01:20:02;5.20;99.90
1578;DHT22;57623;53.608;10.004;2023-02-15T01:22:31;5.20;99.90
1578;DHT22;57623;53.608;10.004;2023-02-15T01:25:01;5.20;99.90
1578;DHT22;57623;53.608;10.004;2023-02-15T01:27:35;5.20;99.90
1578;DHT22;57623;53.608;10.004;2023-02-15T01:30:12;5.20;99.90
1578;DHT22;57623;53.608;10.004;2023-02-15T01:32:47;5.20;99.90
1578;DHT22;57623;53.608;10.004;2023-02-15T01:35:16;5.20;99.90
1578;DHT22;57623;53.608;10.004;2023-02-15T01:37:49;5.20;99.90
1578;DHT22;57623;53.608;10.004;2023-02-15T01:40:26;5.10;99.90
1578;DHT22;57623;53.608;10.004;2023-02-15T01:42:57;5.10;99.90
1578;DHT22;57623;53.608;10.004;2023-02-15T01:45:28;5.20;99.90
1578;DHT22;57623;53.608;10.004;2023-02-15T01:48:03;5.20;99.90
1578;DHT22;57623;53.608;10.004;2023-02-15T01:50:37;5.20;99.90
1578;DHT22;57623;53.608;10.004;2023-02-15T01:53:10;5.20;99.90
1578;DHT22;57623;53.608;10.004;2023-02-15T01:55:42;5.20;99.90
1578;DHT22;57623;53.608;10.004;2023-02-15T01:58:14;5.20;99.90
1578;DHT22;57623;53.608;10.004;2023-02-15T02:00:51;5.10;99.90
1578;DHT22;57623;53.608;10.004;2023-02-15T02:03:36;5.20;99.90
1578;DHT22;57623;53.608;10.004;2023-02-15T02:06:21;5.10;99.90
1578;DHT22;57623;53.608;10.004;2023-02-15T05:21:05;4.70;99.90
1578;DHT22;57623;53.608;10.004;2023-02-15T05:23:36;4.70;99.90
1578;DHT22;57623;53.608;10.004;2023-02-15T05:26:17;4.60;99.90
1578;DHT22;57623;53.608;10.004;2023-02-15T05:29:03;4.60;99.90
1578;DHT22;57623;53.608;10.004;2023-02-15T05:31:37;4.60;99.90
1578;DHT22;57623;53.608;10.004;2023-02-15T05:34:08;4.60;99.90
1578;DHT22;57623;53.608;10.004;2023-02-15T05:36:40;4.60;99.90
1578;DHT22;57623;53.608;10.004;2023-02-15T05:39:11;4.50;99.90
1578;DHT22;57623;53.608;10.004;2023-02-15T05:41:39;4.50;99.90
1578;DHT22;57623;53.608;10.004;2023-02-15T05:48:23;4.50;99.90
1578;DHT22;57623;53.608;10.004;2023-02-15T05:54:54;4.60;99.90
1578;DHT22;57623;53.608;10.004;2023-02-15T05:57:27;4.50;99.90
1578;DHT22;57623;53.608;10.004;2023-02-15T05:59:58;4.50;99.90
1578;DHT22;57623;53.608;10.004;2023-02-15T06:02:29;4.50;99.90
1578;DHT22;57623;53.608;10.004;2023-02-15T06:04:57;4.50;99.90
1578;DHT22;57623;53.608;10.004;2023-02-15T06:07:34;4.40;99.90
1578;DHT22;57623;53.608;10.004;2023-02-15T06:10:09;4.40;99.90
1578;DHT22;57623;53.608;10.004;2023-02-15T06:12:43;4.40;99.90
1578;DHT22;57623;53.608;10.004;2023-02-15T06:15:11;4.40;99.90
1578;DHT22;57623;53.608;10.004;2023-02-15T06:17:42;4.40;99.90
1578;DHT22;57623;53.608;10.004;2023-02-15T06:20:15;4.40;99.90
1578;DHT22;57623;53.608;10.004;2023-02-15T06:22:49;4.40;99.90
1578;DHT22;57623;53.608;10.004;2023-02-15T06:25:25;4.50;99.90
1578;DHT22;57623;53.608;10.004;2023-02-15T06:27:57;4.40;99.90
1578;DHT22;57623;53.608;10.004;2023-02-15T06:30:24;4.40;99.90
1578;DHT22;57623;53.608;10.004;2023-02-15T06:32:54;4.40;99.90
1578;DHT22;57623;53.608;10.004;2023-02-15T06:35:31;4.40;99.90
1578;DHT22;57623;53.608;10.004;2023-02-15T06:38:05;4.30;99.90
1578;DHT22;57623;53.608;10.004;2023-02-15T06:40:35;4.30;99.90
1578;DHT22;57623;53.608;10.004;2023-02-15T06:43:19;4.30;99.90
1578;DHT22;57623;53.608;10.004;2023-02-15T06:45:58;4.30;99.90
1578;DHT22;57623;53.608;10.004;2023-02-15T06:48:30;4.30;99.90
1578;DHT22;57623;53.608;10.004;2023-02-15T06:50:59;4.30;99.90
1578;DHT22;57623;53.608;10.004;2023-02-15T06:53:30;4.30;99.90
1578;DHT22;57623;53.608;10.004;2023-02-15T06:56:12;4.30;99.90
1578;DHT22;57623;53.608;10.004;2023-02-15T06:58:46;4.30;99.90
1578;DHT22;57623;53.608;10.004;2023-02-15T07:01:15;4.20;99.90
1578;DHT22;57623;53.608;10.004;2023-02-15T07:04:16;4.20;99.90
1578;DHT22;57623;53.608;10.004;2023-02-15T07:06:47;4.20;99.90
1578;DHT22;57623;53.608;10.004;2023-02-15T07:09:17;4.20;99.90
1578;DHT22;57623;53.608;10.004;2023-02-15T07:11:57;4.10;99.90
1578;DHT22;57623;53.608;10.004;2023-02-15T07:14:44;4.10;99.90
1578;DHT22;57623;53.608;10.004;2023-02-15T07:17:20;4.10;99.90
1578;DHT22;57623;53.608;10.004;2023-02-15T07:20:03;4.10;99.90
1578;DHT22;57623;53.608;10.004;2023-02-15T07:22:31;4.20;99.90
1578;DHT22;57623;53.608;10.004;2023-02-15T07:25:04;4.20;99.90
1578;DHT22;57623;53.608;10.004;2023-02-15T07:27:42;4.20;99.90
1578;DHT22;57623;53.608;10.004;2023-02-15T07:30:14;4.20;99.90
1578;DHT22;57623;53.608;10.004;2023-02-15T07:32:44;4.10;99.90
1578;DHT22;57623;53.608;10.004;2023-02-15T09:17:07;3.90;99.90
1578;DHT22;57623;53.608;10.004;2023-02-15T09:19:41;4.00;99.90
1578;DHT22;57623;53.608;10.004;2023-02-15T09:22:14;4.00;99.90
1578;DHT22;57623;53.608;10.004;2023-02-15T09:24:45;4.00;99.90
1578;DHT22;57623;53.608;10.004;2023-02-15T09:27:16;4.00;99.90
1578;DHT22;57623;53.608;10.004;2023-02-15T09:29:46;4.10;99.90
1578;DHT22;57623;53.608;10.004;2023-02-15T09:32:18;4.10;99.90
1578;DHT22;57623;53.608;10.004;2023-02-15T09:34:50;4.10;99.90
1578;DHT22;57623;53.608;10.004;2023-02-15T09:37:19;4.20;99.90
1578;DHT22;57623;53.608;10.004;2023-02-15T09:39:52;4.20;99.90
1578;DHT22;57623;53.608;10.004;2023-02-15T09:42:39;4.20;99.90
1578;DHT22;57623;53.608;10.004;2023-02-15T09:45:24;4.30;99.90
1578;DHT22;57623;53.608;10.004;2023-02-15T09:48:24;4.30;99.90
1578;DHT22;57623;53.608;10.004;2023-02-15T09:54:04;4.40;99.90
1578;DHT22;57623;53.608;10.004;2023-02-15T09:56:39;4.40;99.90
1578;DHT22;57623;53.608;10.004;2023-02-15T09:59:25;4.30;99.90
1578;DHT22;57623;53.608;10.004;2023-02-15T10:02:09;4.30;99.90
1578;DHT22;57623;53.608;10.004;2023-02-15T10:05:01;4.30;99.90
1578;DHT22;57623;53.608;10.004;2023-02-15T10:08:00;4.30;99.90
1578;DHT22;57623;53.608;10.004;2023-02-15T10:10:37;4.30;99.90
1578;DHT22;57623;53.608;10.004;2023-02-15T10:13:23;4.30;99.90
1578;DHT22;57623;53.608;10.004;2023-02-15T10:16:12;4.30;99.90
1578;DHT22;57623;53.608;10.004;2023-02-15T10:18:55;4.30;99.90
1578;DHT22;57623;53.608;10.004;2023-02-15T10:21:39;4.30;99.90
1578;DHT22;57623;53.608;10.004;2023-02-15T10:24:31;4.30;99.90
1578;DHT22;57623;53.608;10.004;2023-02-15T10:27:13;4.30;99.90
1578;DHT22;57623;53.608;10.004;2023-02-15T10:29:50;4.40;99.90
1578;DHT22;57623;53.608;10.004;2023-02-15T10:32:26;4.40;99.90
1578;DHT22;57623;53.608;10.004;2023-02-15T10:35:04;4.50;99.90
1578;DHT22;57623;53.608;10.004;2023-02-15T10:37:55;4.50;99.90
1578;DHT22;57623;53.608;10.004;2023-02-15T10:40:35;4.50;99.90
1578;DHT22;57623;53.608;10.004;2023-02-15T10:43:24;4.50;99.90
1578;DHT22;57623;53.608;10.004;2023-02-15T10:46:03;4.50;99.90
1578;DHT22;57623;53.608;10.004;2023-02-15T10:48:53;4.50;99.90
1578;DHT22;57623;53.608;10.004;2023-02-15T10:51:38;4.50;99.90
1578;DHT22;57623;53.608;10.004;2023-02-15T10:54:22;4.60;99.90
1578;DHT22;57623;53.608;10.004;2023-02-15T10:57:04;4.60;99.90
1578;DHT22;57623;53.608;10.004;2023-02-15T10:59:58;4.70;99.90
1578;DHT22;57623;53.608;10.004;2023-02-15T11:02:55;4.70;99.90
1578;DHT22;57623;53.608;10.004;2023-02-15T11:05:39;4.80;99.90
1578;DHT22;57623;53.608;10.004;2023-02-15T11:08:11;4.90;99.90
1578;DHT22;57623;53.608;10.004;2023-02-15T11:10:47;4.90;99.90
1578;DHT22;57623;53.608;10.004;2023-02-15T11:13:31;5.00;99.90
1578;DHT22;57623;53.608;10.004;2023-02-15T11:16:03;5.10;99.90
1578;DHT22;57623;53.608;10.004;2023-02-15T11:18:41;5.10;99.90
1578;DHT22;57623;53.608;10.004;2023-02-15T11:21:17;5.10;99.90
1578;DHT22;57623;53.608;10.004;2023-02-15T11:23:51;5.30;99.90
1578;DHT22;57623;53.608;10.004;2023-02-15T11:26:28;5.30;99.90
1578;DHT22;57623;53.608;10.004;2023-02-15T11:29:17;5.40;99.90
1578;DHT22;57623;53.608;10.004;2023-02-15T11:31:47;5.50;99.90
1578;DHT22;57623;53.608;10.004;2023-02-15T11:34:27;5.70;99.90
1578;DHT22;57623;53.608;10.004;2023-02-15T11:36:59;6.00;99.90
1578;DHT22;57623;53.608;10.004;2023-02-15T11:39:32;6.20;99.90
1578;DHT22;57623;53.608;10.004;2023-02-15T11:42:09;6.40;99.90
1578;DHT22;57623;53.608;10.004;2023-02-15T11:44:54;6.70;99.90
1578;DHT22;57623;53.608;10.004;2023-02-15T11:47:26;6.80;99.90
1578;DHT22;57623;53.608;10.004;2023-02-15T11:49:56;7.00;99.90
1578;DHT22;57623;53.608;10.004;2023-02-15T11:52:34;7.10;99.90
1578;DHT22;57623;53.608;10.004;2023-02-15T11:55:12;7.30;99.90
1578;DHT22;57623;53.608;10.004;2023-02-15T11:57:47;7.60;99.90
1578;DHT22;57623;53.608;10.004;2023-02-15T12:00:25;8.00;99.90
1578;DHT22;57623;53.608;10.004;2023-02-15T12:03:12;8.50;99.90
1578;DHT22;57623;53.608;10.004;2023-02-15T12:05:43;9.70;99.90
1578;DHT22;57623;53.608;10.004;2023-02-15T12:08:24;11.20;99.90
1578;DHT22;57623;53.608;10.004;2023-02-15T12:11:06;12.90;99.90
1578;DHT22;57623;53.608;10.004;2023-02-15T12:13:56;15.30;99.90
1578;DHT22;57623;53.608;10.004;2023-02-15T12:16:29;17.70;99.90
1578;DHT22;57623;53.608;10.004;2023-02-15T12:19:00;19.50;99.90
1578;DHT22;57623;53.608;10.004;2023-02-15T12:21:40;20.80;93.00
1578;DHT22;57623;53.608;10.004;2023-02-15T12:24:19;21.80;73.10
1578;DHT22;57623;53.608;10.004;2023-02-15T12:27:04;23.00;64.00
1578;DHT22;57623;53.608;10.004;2023-02-15T12:29:40;24.30;55.50
1578;DHT22;57623;53.608;10.004;2023-02-15T12:32:17;25.10;50.50
1578;DHT22;57623;53.608;10.004;2023-02-15T12:34:47;25.60;47.70
1578;DHT22;57623;53.608;10.004;2023-02-15T18:22:19;6.60;99.90
1578;DHT22;57623;53.608;10.004;2023-02-15T18:25:12;6.60;99.90
1578;DHT22;57623;53.608;10.004;2023-02-15T18:27:40;6.50;99.90
1578;DHT22;57623;53.608;10.004;2023-02-15T18:30:16;6.50;99.90
1578;DHT22;57623;53.608;10.004;2023-02-15T18:32:55;6.50;99.90
1578;DHT22;57623;53.608;10.004;2023-02-15T18:35:30;6.50;99.90
1578;DHT22;57623;53.608;10.004;2023-02-15T18:38:12;6.50;99.90
1578;DHT22;57623;53.608;10.004;2023-02-15T18:40:44;6.50;99.90
1578;DHT22;57623;53.608;10.004;2023-02-15T18:43:14;6.40;99.90
1578;DHT22;57623;53.608;10.004;2023-02-15T18:45:51;6.40;99.90
1578;DHT22;57623;53.608;10.004;2023-02-15T18:48:21;6.30;99.90
1578;DHT22;57623;53.608;10.004;2023-02-15T18:50:53;6.30;99.90
1578;DHT22;57623;53.608;10.004;2023-02-15T18:53:26;6.30;99.90
1578;DHT22;57623;53.608;10.004;2023-02-15T18:55:59;6.20;99.90
1578;DHT22;57623;53.608;10.004;2023-02-15T18:58:33;6.30;99.90
1578;DHT22;57623;53.608;10.004;2023-02-15T19:01:02;6.20;99.90
1578;DHT22;57623;53.608;10.004;2023-02-15T19:03:43;6.20;99.90
1578;DHT22;57623;53.608;10.004;2023-02-15T19:06:22;6.20;99.90
1578;DHT22;57623;53.608;10.004;2023-02-15T19:08:52;6.10;99.90
1578;DHT22;57623;53.608;10.004;2023-02-15T19:11:28;6.00;99.90
1578;DHT22;57623;53.608;10.004;2023-02-15T19:14:14;6.00;99.90
1578;DHT22;57623;53.608;10.004;2023-02-15T19:17:08;6.00;99.90
1578;DHT22;57623;53.608;10.004;2023-02-15T19:19:42;6.00;99.90
1578;DHT22;57623;53.608;10.004;2023-02-15T19:22:13;6.00;99.90
1578;DHT22;57623;53.608;10.004;2023-02-15T19:24:50;5.90;99.90
1578;DHT22;57623;53.608;10.004;2023-02-15T19:27:23;5.90;99.90
1578;DHT22;57623;53.608;10.004;2023-02-15T19:29:56;5.90;99.90
1578;DHT22;57623;53.608;10.004;2023-02-15T19:32:29;5.80;99.90
1578;DHT22;57623;53.608;10.004;2023-02-15T19:35:04;5.80;99.90
1578;DHT22;57623;53.608;10.004;2023-02-15T19:37:47;5.80;99.90
1578;DHT22;57623;53.608;10.004;2023-02-15T19:40:30;5.80;99.90
1578;DHT22;57623;53.608;10.004;2023-02-15T19:43:05;5.70;99.90
1578;DHT22;57623;53.608;10.004;2023-02-15T19:45:48;5.70;99.90
1578;DHT22;57623;53.608;10.004;2023-02-15T19:48:29;5.70;99.90
1578;DHT22;57623;53.608;10.004;2023-02-15T19:50:57;5.70;99.90
1578;DHT22;57623;53.608;10.004;2023-02-15T19:53:35;5.60;99.90
1578;DHT22;57623;53.608;10.004;2023-02-15T19:56:10;5.60;99.90
1578;DHT22;57623;53.608;10.004;2023-02-15T19:58:40;5.60;99.90
1578;DHT22;57623;53.608;10.004;2023-02-15T20:01:14;5.60;99.90
1578;DHT22;57623;53.608;10.004;2023-02-15T20:03:49;5.60;99.90
1578;DHT22;57623;53.608;10.004;2023-02-15T20:06:20;5.60;99.90
1578;DHT22;57623;53.608;10.004;2023-02-15T20:08:51;5.60;99.90
1578;DHT22;57623;53.608;10.004;2023-02-15T20:11:24;5.60;99.90
1578;DHT22;57623;53.608;10.004;2023-02-15T20:32:58;5.30;99.90
1578;DHT22;57623;53.608;10.004;2023-02-15T20:35:30;5.30;99.90
1578;DHT22;57623;53.608;10.004;2023-02-15T20:38:16;5.20;99.90
1578;DHT22;57623;53.608;10.004;2023-02-15T20:45:04;5.20;99.90
1578;DHT22;57623;53.608;10.004;2023-02-15T20:47:38;5.20;99.90
1578;DHT22;57623;53.608;10.004;2023-02-15T20:50:47;5.20;99.90
1578;DHT22;57623;53.608;10.004;2023-02-15T20:53:59;5.10;99.90
1578;DHT22;57623;53.608;10.004;2023-02-15T20:57:07;5.10;99.90
1578;DHT22;57623;53.608;10.004;2023-02-15T21:00:32;5.10;99.90
1578;DHT22;57623;53.608;10.004;2023-02-15T21:03:45;5.10;99.90
1578;DHT22;57623;53.608;10.004;2023-02-15T21:10:30;5.00;99.90
1578;DHT22;57623;53.608;10.004;2023-02-15T21:19:55;4.90;99.90
1578;DHT22;57623;53.608;10.004;2023-02-15T21:22:52;4.90;99.90
1578;DHT22;57623;53.608;10.004;2023-02-15T21:25:41;4.80;99.90
1578;DHT22;57623;53.608;10.004;2023-02-15T21:28:33;4.80;99.90
1578;DHT22;57623;53.608;10.004;2023-02-15T21:31:46;4.80;99.90
1578;DHT22;57623;53.608;10.004;2023-02-15T21:34:26;4.80;99.90
1578;DHT22;57623;53.608;10.004;2023-02-15T21:37:38;4.70;99.90
1578;DHT22;57623;53.608;10.004;2023-02-15T21:40:28;4.70;99.90
1578;DHT22;57623;53.608;10.004;2023-02-15T21:43:16;4.70;99.90
1578;DHT22;57623;53.608;10.004;2023-02-15T21:46:12;4.70;99.90
1578;DHT22;57623;53.608;10.004;2023-02-15T21:49:16;4.60;99.90
1578;DHT22;57623;53.608;10.004;2023-02-15T21:51:51;4.60;99.90
1578;DHT22;57623;53.608;10.004;2023-02-15T21:55:16;4.50;99.90
1578;DHT22;57623;53.608;10.004;2023-02-15T21:58:41;4.50;99.90
1578;DHT22;57623;53.608;10.004;2023-02-15T22:02:07;4.40;99.90
1578;DHT22;57623;53.608;10.004;2023-02-15T22:04:33;4.40;99.90
1578;DHT22;57623;53.608;10.004;2023-02-15T22:07:13;4.30;99.90
1578;DHT22;57623;53.608;10.004;2023-02-15T22:09:51;4.30;99.90
1578;DHT22;57623;53.608;10.004;2023-02-15T22:12:23;4.30;99.90
1578;DHT22;57623;53.608;10.004;2023-02-15T22:15:04;4.30;99.90
1578;DHT22;57623;53.608;10.004;2023-02-15T22:17:36;4.30;99.90
1578;DHT22;57623;53.608;10.004;2023-02-15T22:20:13;4.20;99.90
1578;DHT22;57623;53.608;10.004;2023-02-15T22:22:56;4.20;99.90
1578;DHT22;57623;53.608;10.004;2023-02-15T22:25:36;4.20;99.90
1578;DHT22;57623;53.608;10.004;2023-02-15T22:28:15;4.20;99.90
1578;DHT22;57623;53.608;10.004;2023-02-15T22:31:02;4.20;99.90
1578;DHT22;57623;53.608;10.004;2023-02-15T22:33:37;4.20;99.90
1578;DHT22;57623;53.608;10.004;2023-02-15T22:36:24;4.10;99.90
1578;DHT22;57623;53.608;10.004;2023-02-15T22:39:06;4.10;99.90
1578;DHT22;57623;53.608;10.004;2023-02-15T22:41:46;4.10;99.90
1578;DHT22;57623;53.608;10.004;2023-02-15T22:44:37;4.10;99.90
1578;DHT22;57623;53.608;10.004;2023-02-15T22:47:26;4.00;99.90
1578;DHT22;57623;53.608;10.004;2023-02-15T22:50:26;4.00;99.90
1578;DHT22;57623;53.608;10.004;2023-02-15T22:53:24;4.00;99.90
1578;DHT22;57623;53.608;10.004;2023-02-15T22:56:02;4.00;99.90
1578;DHT22;57623;53.608;10.004;2023-02-15T22:58:33;4.00;99.90
1578;DHT22;57623;53.608;10.004;2023-02-15T23:01:21;4.00;99.90
1578;DHT22;57623;53.608;10.004;2023-02-15T23:04:15;3.90;99.90
1578;DHT22;57623;53.608;10.004;2023-02-15T23:06:51;3.90;99.90
1578;DHT22;57623;53.608;10.004;2023-02-15T23:09:26;3.90;99.90
1578;DHT22;57623;53.608;10.004;2023-02-15T23:12:21;3.90;99.90
1578;DHT22;57623;53.608;10.004;2023-02-15T23:15:41;3.90;99.90
1578;DHT22;57623;53.608;10.004;2023-02-15T23:18:41;3.90;99.90
1578;DHT22;57623;53.608;10.004;2023-02-15T23:21:45;3.90;99.90
1578;DHT22;57623;53.608;10.004;2023-02-15T23:24:34;3.90;99.90
1578;DHT22;57623;53.608;10.004;2023-02-15T23:27:36;3.90;99.90
1578;DHT22;57623;53.608;10.004;2023-02-15T23:30:46;3.90;99.90
1578;DHT22;57623;53.608;10.004;2023-02-15T23:33:30;3.90;99.90
1578;DHT22;57623;53.608;10.004;2023-02-15T23:36:04;3.90;99.90
1578;DHT22;57623;53.608;10.004;2023-02-15T23:38:39;3.90;99.90
1578;DHT22;57623;53.608;10.004;2023-02-15T23:41:39;3.90;99.90
1578;DHT22;57623;53.608;10.004;2023-02-15T23:44:35;3.90;99.90
1578;DHT22;57623;53.608;10.004;2023-02-15T23:47:31;4.00;99.90
1578;DHT22;57623;53.608;10.004;2023-02-15T23:50:21;4.00;99.90
1578;DHT22;57623;53.608;10.004;2023-02-15T23:52:57;3.90;99.90
1578;DHT22;57623;53.608;10.004;2023-02-15T23:55:58;3.80;99.90
1578;DHT22;57623;53.608;10.004;2023-02-15T23:58:36;3.80;99.90
